TAF KCLL
KCLL 090535Z 0906/1006 14010KT 5SM BR OVC007 TEMPO 0909/0911 3SM BR OVC004 FM091100 17006KT 4SM BR OVC006 FM091700 20015KT 6SM BR OVC015 FM092000 20016KT P6SM BKN050 FM100500 17009KT P6SM OVC020=
METAR KCLL
WC KCLL
WS KCLL
WV KCLL